Time;durP1;ratioP1;P1;durP2;ratioP2;P2;SDS_P1;SDS_P2;PMS_P1;PMS_P2;Temp;Humidity;BMP_temperature;BMP_pressure;BME280_temperature;BME280_humidity;BME280_pressure;Samples;Min_cycle;Max_cycle;Signal;HPM_P1;HPM_P2
2022/04/21 00:01:21;;;;;;;6.13;5.22;;;9.20;36.60;;;;;;5061074;28;20226;-79
2022/04/21 00:03:48;;;;;;;7.45;4.80;;;9.20;36.90;;;;;;5063154;28;20210;-82
2022/04/21 00:06:16;;;;;;;6.47;5.05;;;9.10;36.60;;;;;;5075122;28;20210;-79
2022/04/21 00:08:57;;;;;;;6.45;5.70;;;9.10;37.00;;;;;;5069929;28;20202;-78
2022/04/21 00:11:24;;;;;;;10.68;5.63;;;9.00;37.20;;;;;;5050526;28;20235;-78
2022/04/21 00:13:51;;;;;;;4.95;4.45;;;9.00;37.50;;;;;;5036625;28;20234;-78
2022/04/21 00:16:19;;;;;;;8.05;4.80;;;9.00;37.50;;;;;;5037366;28;20267;-81
2022/04/21 00:18:48;;;;;;;4.70;4.20;;;8.80;38.00;;;;;;5057079;28;20241;-79
2022/04/21 00:21:15;;;;;;;5.13;4.70;;;8.80;38.40;;;;;;5068156;28;20221;-80
2022/04/21 00:23:41;;;;;;;5.53;4.53;;;8.80;38.60;;;;;;5061366;28;20207;-78
2022/04/21 00:26:08;;;;;;;5.37;4.87;;;8.80;38.90;;;;;;5047636;28;20203;-76
2022/04/21 00:28:35;;;;;;;4.97;4.57;;;8.80;39.40;;;;;;5065844;28;20452;-78
2022/04/21 00:31:03;;;;;;;6.63;5.30;;;8.80;39.40;;;;;;5065736;28;20207;-78
2022/04/21 00:33:31;;;;;;;5.50;5.00;;;8.80;39.40;;;;;;5064249;28;20198;-78
2022/04/21 00:35:58;;;;;;;5.40;4.95;;;8.90;39.50;;;;;;5063926;28;20250;-79
2022/04/21 00:38:25;;;;;;;5.40;4.95;;;8.80;39.40;;;;;;5061831;28;20230;-82
2022/04/21 00:40:52;;;;;;;5.60;5.10;;;8.80;39.40;;;;;;5057605;28;20219;-80
2022/04/21 00:43:21;;;;;;;6.05;5.18;;;8.80;39.40;;;;;;5063311;28;20226;-78
2022/04/21 00:45:49;;;;;;;6.03;5.18;;;8.80;39.40;;;;;;5072955;28;20206;-80
2022/04/21 00:48:16;;;;;;;6.63;5.55;;;8.80;39.40;;;;;;5071641;28;20186;-81
2022/04/21 00:50:45;;;;;;;6.90;5.50;;;8.80;39.40;;;;;;5074360;28;20180;-81
2022/04/21 00:53:11;;;;;;;6.90;5.35;;;8.80;39.40;;;;;;5054225;28;20219;-82
2022/04/21 00:55:40;;;;;;;6.00;5.43;;;8.80;39.50;;;;;;5053373;28;20323;-78
2022/04/21 00:58:08;;;;;;;8.05;5.93;;;8.80;40.10;;;;;;5049070;28;20249;-79
2022/04/21 01:00:37;;;;;;;7.25;5.00;;;8.70;40.10;;;;;;5049009;28;20207;-79
2022/04/21 01:03:04;;;;;;;9.20;5.95;;;8.60;40.50;;;;;;5042342;28;20214;-80
2022/04/21 01:05:33;;;;;;;7.88;5.47;;;8.60;40.90;;;;;;5056724;28;20234;-78
2022/04/21 01:08:03;;;;;;;5.90;4.82;;;8.60;41.10;;;;;;5076791;28;20187;-79
2022/04/21 01:10:33;;;;;;;7.05;6.15;;;8.60;41.20;;;;;;5067139;28;20238;-81
2022/04/21 01:13:00;;;;;;;5.95;5.45;;;8.60;41.40;;;;;;5054034;28;20223;-79
2022/04/21 01:15:27;;;;;;;6.80;5.75;;;8.50;41.60;;;;;;5055257;28;20256;-79
2022/04/21 01:17:55;;;;;;;6.63;6.03;;;8.40;41.80;;;;;;5062091;28;20205;-79
2022/04/21 01:20:24;;;;;;;5.80;5.20;;;8.30;42.60;;;;;;5059810;28;20206;-77
2022/04/21 01:22:51;;;;;;;5.38;4.75;;;8.20;43.70;;;;;;5063831;28;20253;-77
2022/04/21 01:25:19;;;;;;;5.90;5.30;;;8.30;43.80;;;;;;5051744;28;20194;-77
2022/04/21 01:27:48;;;;;;;6.47;5.75;;;8.30;43.90;;;;;;5066757;28;20213;-78
2022/04/21 01:30:16;;;;;;;5.80;5.20;;;8.20;44.60;;;;;;5065641;28;20293;-79
2022/04/21 01:32:44;;;;;;;5.57;5.07;;;8.20;44.60;;;;;;5067603;28;20219;-77
2022/04/21 01:35:12;;;;;;;5.78;5.15;;;8.10;44.80;;;;;;5067588;28;20241;-78
2022/04/21 01:43:11;;;;;;;6.60;6.00;;;8.10;45.70;;;;;;5068749;28;20225;-78
2022/04/21 01:45:38;;;;;;;7.28;6.50;;;8.10;45.50;;;;;;5067459;28;20201;-77
2022/04/21 01:48:06;;;;;;;6.07;5.57;;;8.00;45.90;;;;;;5068334;28;20206;-77
2022/04/21 01:50:33;;;;;;;7.30;6.00;;;7.90;46.40;;;;;;5067376;28;20203;-78
2022/04/21 01:53:01;;;;;;;8.15;6.35;;;8.00;46.70;;;;;;5066428;28;20266;-77
2022/04/21 01:55:28;;;;;;;7.25;6.65;;;7.90;46.80;;;;;;5065466;28;20218;-78
2022/04/21 01:57:55;;;;;;;5.80;5.30;;;7.90;47.20;;;;;;5053006;28;20217;-77
2022/04/21 02:00:22;;;;;;;8.55;5.72;;;7.90;47.30;;;;;;5058272;28;20226;-77
2022/04/21 02:02:50;;;;;;;6.35;5.75;;;7.90;47.80;;;;;;5050579;28;20242;-78
2022/04/21 02:05:17;;;;;;;7.30;6.60;;;7.70;48.20;;;;;;5055641;28;20205;-77
2022/04/21 02:07:45;;;;;;;6.57;5.80;;;7.70;48.20;;;;;;5060759;28;20230;-78
2022/04/21 02:10:14;;;;;;;7.32;6.20;;;7.70;48.20;;;;;;5072570;28;20219;-79
2022/04/21 02:12:41;;;;;;;6.45;5.85;;;7.60;48.10;;;;;;5064862;28;20227;-80
2022/04/21 02:15:10;;;;;;;7.00;5.88;;;7.60;48.90;;;;;;5066810;28;20234;-79
2022/04/21 02:17:37;;;;;;;7.00;6.25;;;7.50;49.20;;;;;;5052431;28;20298;-76
2022/04/21 02:20:06;;;;;;;7.05;6.10;;;7.50;50.10;;;;;;5044253;28;20219;-78
2022/04/21 02:22:34;;;;;;;7.47;6.72;;;7.50;50.10;;;;;;5064333;28;20222;-78
2022/04/21 02:25:02;;;;;;;7.80;6.32;;;7.50;50.20;;;;;;5070661;28;20190;-79
2022/04/21 02:27:31;;;;;;;7.13;6.43;;;7.50;50.60;;;;;;5068006;28;20198;-76
2022/04/21 02:29:58;;;;;;;6.95;6.25;;;7.50;50.90;;;;;;5073345;28;20414;-77
2022/04/21 02:32:25;;;;;;;7.32;6.63;;;7.40;51.10;;;;;;5045500;28;20229;-79
2022/04/21 02:34:53;;;;;;;7.97;7.18;;;7.40;51.60;;;;;;5055631;28;20207;-79
2022/04/21 02:37:21;;;;;;;8.18;6.82;;;7.30;51.90;;;;;;5069330;28;20191;-81
2022/04/21 02:39:48;;;;;;;7.70;6.90;;;7.30;53.30;;;;;;5057574;28;20206;-80
2022/04/21 02:42:15;;;;;;;10.90;7.35;;;7.20;52.90;;;;;;5074464;28;20250;-82
2022/04/21 02:44:44;;;;;;;9.23;6.70;;;7.30;53.00;;;;;;5057382;28;20551;-77
2022/04/21 02:47:11;;;;;;;7.65;7.00;;;7.20;53.20;;;;;;5055477;28;20226;-77
2022/04/21 02:49:38;;;;;;;9.40;7.32;;;7.20;53.40;;;;;;5066236;28;20265;-77
2022/04/21 02:52:09;;;;;;;9.25;6.97;;;7.20;53.90;;;;;;5067825;28;20211;-78
2022/04/21 02:57:21;;;;;;;11.75;7.82;;;7.10;54.40;;;;;;5060891;28;20224;-77
2022/04/21 02:59:51;;;;;;;11.40;8.00;;;7.10;54.40;;;;;;5057806;28;20188;-77
2022/04/21 03:02:18;;;;;;;9.48;7.03;;;7.10;55.00;;;;;;5054963;28;20651;-79
2022/04/21 03:04:46;;;;;;;8.52;7.72;;;7.10;55.30;;;;;;5054276;28;20203;-78
2022/04/21 03:07:14;;;;;;;8.90;7.22;;;7.10;55.60;;;;;;5060625;28;20206;-76
2022/04/21 03:09:41;;;;;;;9.68;8.68;;;7.10;56.00;;;;;;5059533;28;20207;-78
2022/04/21 03:12:09;;;;;;;7.97;7.20;;;7.00;56.10;;;;;;5077448;28;20223;-76
2022/04/21 03:14:37;;;;;;;8.20;7.35;;;7.00;56.00;;;;;;5076733;28;20258;-76
2022/04/21 03:17:06;;;;;;;10.45;8.40;;;7.00;57.10;;;;;;5057192;28;20223;-76
2022/04/21 03:19:34;;;;;;;8.88;7.97;;;6.90;57.00;;;;;;5057091;28;20219;-77
2022/04/21 03:24:46;;;;;;;8.40;7.55;;;6.80;56.90;;;;;;5069120;28;20250;-75
2022/04/21 03:27:14;;;;;;;9.95;8.90;;;6.80;56.90;;;;;;5063843;28;20214;-76
2022/04/21 03:29:41;;;;;;;9.45;8.50;;;6.80;56.90;;;;;;5070577;28;20198;-76
2022/04/21 03:32:13;;;;;;;9.68;8.35;;;6.80;57.20;;;;;;5063599;28;20217;-77
2022/04/21 03:34:41;;;;;;;9.75;7.93;;;6.80;57.80;;;;;;5070303;28;20211;-77
2022/04/21 03:37:09;;;;;;;11.85;8.65;;;6.70;57.90;;;;;;5073281;28;20218;-79
2022/04/21 03:39:37;;;;;;;11.65;8.88;;;6.60;58.90;;;;;;5073230;28;20198;-77
2022/04/21 03:42:04;;;;;;;9.82;8.85;;;6.60;59.40;;;;;;5074455;28;20230;-78
2022/04/21 03:44:32;;;;;;;10.13;9.23;;;6.50;60.00;;;;;;5070254;28;20218;-78
2022/04/21 03:46:59;;;;;;;9.38;8.38;;;6.50;60.10;;;;;;5061127;28;20270;-76
2022/04/21 03:49:30;;;;;;;9.60;8.70;;;6.50;60.60;;;;;;5070040;28;20210;-75
2022/04/21 03:51:58;;;;;;;11.02;9.30;;;6.50;60.90;;;;;;5064925;28;20203;-77
2022/04/21 03:54:26;;;;;;;9.10;8.20;;;6.40;61.20;;;;;;5074504;28;20178;-76
2022/04/21 03:56:54;;;;;;;10.00;8.93;;;6.40;61.40;;;;;;5070478;28;20253;-83
2022/04/21 03:59:22;;;;;;;10.55;9.55;;;6.40;62.20;;;;;;5061592;28;20237;-78
2022/04/21 04:01:49;;;;;;;9.77;8.60;;;6.40;61.90;;;;;;5073571;28;20210;-86
2022/04/21 04:04:16;;;;;;;9.75;8.75;;;6.30;62.10;;;;;;5083977;28;20257;-88
2022/04/21 04:12:17;;;;;;;10.35;9.15;;;6.30;63.30;;;;;;5059891;28;20222;-83
2022/04/21 04:14:44;;;;;;;16.15;9.85;;;6.20;63.30;;;;;;5070695;28;20186;-83
2022/04/21 04:17:12;;;;;;;14.90;8.35;;;6.20;64.10;;;;;;5075246;28;20214;-78
2022/04/21 04:19:39;;;;;;;9.95;8.23;;;6.20;64.50;;;;;;5077828;28;20265;-81
2022/04/21 04:22:08;;;;;;;10.13;9.05;;;6.20;64.70;;;;;;5080636;28;20233;-80
2022/04/21 04:24:34;;;;;;;10.45;9.48;;;6.20;65.30;;;;;;5066368;28;20207;-83
2022/04/21 04:27:01;;;;;;;9.93;8.93;;;6.20;64.20;;;;;;5060320;28;20233;-78
2022/04/21 04:29:28;;;;;;;9.30;8.45;;;6.20;64.40;;;;;;5056699;28;20245;-82
2022/04/21 04:31:57;;;;;;;11.60;10.00;;;6.20;64.80;;;;;;5061359;28;20274;-85
2022/04/21 04:34:24;;;;;;;10.68;9.55;;;6.20;64.50;;;;;;5058200;28;20270;-79
2022/04/21 04:36:53;;;;;;;10.40;9.43;;;6.30;64.40;;;;;;5058886;28;20237;-81
2022/04/21 04:39:22;;;;;;;10.45;9.05;;;6.20;64.90;;;;;;5061143;28;20230;-79
2022/04/21 04:44:33;;;;;;;12.27;9.45;;;6.20;65.30;;;;;;5065477;28;20202;-82
2022/04/21 04:46:59;;;;;;;11.45;9.98;;;6.20;65.30;;;;;;5069008;28;20221;-83
2022/04/21 04:49:27;;;;;;;12.70;10.50;;;6.20;65.30;;;;;;5077547;28;20581;-86
2022/04/21 04:51:54;;;;;;;12.23;9.15;;;6.30;65.40;;;;;;5060832;28;20485;-85
2022/04/21 04:54:22;;;;;;;10.98;9.55;;;6.50;65.60;;;;;;5077276;28;20213;-83
2022/04/21 04:56:49;;;;;;;10.63;9.02;;;6.70;63.20;;;;;;5062105;28;20231;-80
2022/04/21 04:59:16;;;;;;;10.02;9.02;;;6.90;61.10;;;;;;5071804;28;20186;-80
2022/04/21 05:01:45;;;;;;;10.65;9.25;;;7.20;59.20;;;;;;5066832;28;20211;-80
2022/04/21 05:04:14;;;;;;;8.50;7.70;;;7.40;57.50;;;;;;5057916;28;20245;-77
2022/04/21 05:06:43;;;;;;;11.35;8.30;;;7.60;56.30;;;;;;5056054;28;20207;-79
2022/04/21 05:09:12;;;;;;;9.75;8.85;;;7.70;55.60;;;;;;5069637;28;20213;-78
2022/04/21 05:11:41;;;;;;;11.85;8.98;;;7.90;54.70;;;;;;5072435;28;20210;-78
2022/04/21 05:14:09;;;;;;;9.43;8.52;;;8.20;53.90;;;;;;5061062;28;20179;-83
2022/04/21 05:16:39;;;;;;;9.15;8.25;;;8.50;51.80;;;;;;5065525;28;20222;-78
2022/04/21 05:19:08;;;;;;;9.30;8.40;;;8.50;50.40;;;;;;5054101;28;20241;-80
2022/04/21 05:21:36;;;;;;;9.20;8.25;;;8.40;50.60;;;;;;5053174;28;20231;-74
2022/04/21 05:24:04;;;;;;;9.10;8.20;;;8.80;50.30;;;;;;5069287;28;20203;-76
2022/04/21 05:26:33;;;;;;;10.90;9.27;;;9.00;48.90;;;;;;5055623;28;20199;-77
2022/04/21 05:30:55;;;;;;;8.60;7.80;;;8.70;49.10;;;;;;5044347;28;20203;-77
2022/04/21 05:31:56;;;;;;;9.13;8.18;;;9.20;48.60;;;;;;5055192;28;20226;-76
2022/04/21 05:34:24;;;;;;;10.55;9.45;;;9.00;48.40;;;;;;5052791;28;20213;-77
2022/04/21 05:36:51;;;;;;;9.38;8.45;;;9.00;49.00;;;;;;5043826;28;20612;-77
2022/04/21 05:39:19;;;;;;;9.80;8.80;;;9.00;49.40;;;;;;5049248;28;20216;-77
2022/04/21 05:41:47;;;;;;;9.88;8.13;;;9.20;48.50;;;;;;5057421;28;20245;-77
2022/04/21 05:44:16;;;;;;;10.30;9.27;;;9.10;48.60;;;;;;5055332;28;20211;-77
2022/04/21 05:46:44;;;;;;;9.10;8.20;;;8.80;49.10;;;;;;5058001;28;20488;-76
2022/04/21 05:49:11;;;;;;;12.88;8.60;;;8.70;49.10;;;;;;5065039;28;20197;-77
2022/04/21 05:51:39;;;;;;;9.88;8.90;;;8.70;49.10;;;;;;5070825;28;20249;-77
2022/04/21 05:54:07;;;;;;;9.35;8.48;;;8.80;49.10;;;;;;5064120;28;20214;-78
2022/04/21 05:56:36;;;;;;;10.07;8.95;;;9.00;48.70;;;;;;5061183;28;20248;-78
2022/04/21 05:59:05;;;;;;;10.07;9.00;;;9.10;49.00;;;;;;5064874;28;20199;-77
2022/04/21 06:01:33;;;;;;;10.38;8.65;;;9.60;46.70;;;;;;5047586;28;20254;-77
2022/04/21 06:04:00;;;;;;;10.20;9.15;;;9.70;46.00;;;;;;5043152;28;20198;-78
2022/04/21 06:06:27;;;;;;;10.48;9.35;;;9.50;46.90;;;;;;5055943;28;20262;-79
2022/04/21 06:08:53;;;;;;;11.00;9.50;;;9.40;47.30;;;;;;5046779;28;20267;-77
2022/04/21 06:11:21;;;;;;;11.23;8.95;;;9.20;47.90;;;;;;5055378;28;20226;-77
2022/04/21 06:13:48;;;;;;;10.27;9.07;;;9.30;47.80;;;;;;5064084;28;20210;-79
2022/04/21 06:16:15;;;;;;;9.18;8.25;;;9.30;48.00;;;;;;5067699;28;20230;-81
2022/04/21 06:18:44;;;;;;;11.23;9.63;;;9.20;48.30;;;;;;5071017;28;20245;-78
2022/04/21 06:21:11;;;;;;;10.43;9.35;;;9.60;47.30;;;;;;5058507;28;20226;-79
2022/04/21 06:23:37;;;;;;;11.48;9.93;;;9.80;45.90;;;;;;5044780;28;20208;-77
2022/04/21 06:26:04;;;;;;;10.48;9.23;;;9.60;46.30;;;;;;5058120;28;20266;-79
2022/04/21 06:28:31;;;;;;;10.98;9.98;;;9.60;46.40;;;;;;5066000;28;20218;-78
2022/04/21 06:30:58;;;;;;;10.40;9.40;;;9.90;46.00;;;;;;5046151;28;20207;-79
2022/04/21 06:33:25;;;;;;;10.48;9.48;;;9.60;46.50;;;;;;5046237;28;20212;-78
2022/04/21 06:35:54;;;;;;;11.75;10.38;;;9.70;47.10;;;;;;5049006;28;20290;-77
2022/04/21 06:38:20;;;;;;;12.20;9.93;;;9.90;45.80;;;;;;5052078;28;20274;-76
2022/04/21 06:40:47;;;;;;;12.35;10.48;;;9.80;45.90;;;;;;5048090;28;20266;-77
2022/04/21 06:48:43;;;;;;;11.40;10.20;;;9.60;46.20;;;;;;5058295;28;20204;-76
2022/04/21 06:51:13;;;;;;;13.95;11.15;;;9.60;46.90;;;;;;5041498;28;20638;-77
2022/04/21 06:53:40;;;;;;;12.52;11.07;;;9.70;47.20;;;;;;5043466;28;20207;-76
2022/04/21 06:56:07;;;;;;;13.73;12.25;;;9.70;46.10;;;;;;5053311;28;20770;-76
2022/04/21 06:58:34;;;;;;;12.27;11.07;;;9.70;46.80;;;;;;5050315;28;20206;-77
2022/04/21 07:01:02;;;;;;;15.65;10.85;;;9.80;45.90;;;;;;5049320;28;20221;-78
2022/04/21 07:03:29;;;;;;;11.73;10.48;;;9.90;45.30;;;;;;5052497;28;20218;-78
2022/04/21 07:05:56;;;;;;;12.30;11.10;;;9.70;45.20;;;;;;5044592;28;20551;-77
2022/04/21 07:08:25;;;;;;;12.55;11.23;;;9.90;45.30;;;;;;5039405;28;20261;-76
2022/04/21 07:10:51;;;;;;;13.00;11.63;;;10.10;43.60;;;;;;5046017;28;20203;-76
2022/04/21 07:13:19;;;;;;;17.42;11.73;;;10.20;43.40;;;;;;5043323;28;20231;-78
2022/04/21 07:15:46;;;;;;;13.88;12.13;;;10.20;42.70;;;;;;5042075;28;20207;-76
2022/04/21 07:18:13;;;;;;;12.32;11.13;;;10.00;43.60;;;;;;5050040;28;20250;-78
2022/04/21 07:20:40;;;;;;;11.82;10.55;;;10.00;43.80;;;;;;5053925;28;20207;-77
2022/04/21 07:23:07;;;;;;;13.82;12.35;;;10.20;43.90;;;;;;5052516;28;20231;-77
2022/04/21 07:25:38;;;;;;;15.40;12.20;;;10.30;43.30;;;;;;5045124;28;20211;-79
2022/04/21 07:28:05;;;;;;;13.48;11.95;;;10.50;42.90;;;;;;5042818;28;20613;-77
2022/04/21 07:30:32;;;;;;;13.40;11.98;;;10.20;43.20;;;;;;5046738;28;20574;-76
2022/04/21 07:32:59;;;;;;;13.32;11.93;;;10.40;43.30;;;;;;5049699;28;20294;-78
2022/04/21 07:35:26;;;;;;;14.85;12.43;;;10.60;42.90;;;;;;5049814;28;20222;-78
2022/04/21 07:37:53;;;;;;;12.95;11.48;;;10.60;42.40;;;;;;5048443;28;20239;-76
2022/04/21 07:40:20;;;;;;;12.90;11.52;;;10.70;42.30;;;;;;5048738;28;20203;-77
2022/04/21 07:42:49;;;;;;;14.98;12.63;;;10.90;41.40;;;;;;5047592;28;20234;-75
2022/04/21 07:45:16;;;;;;;13.27;11.90;;;10.90;42.10;;;;;;5048078;28;20274;-76
2022/04/21 07:47:43;;;;;;;20.08;13.02;;;11.20;40.10;;;;;;5046962;28;20221;-77
2022/04/21 07:50:10;;;;;;;13.90;12.13;;;11.30;40.70;;;;;;5047139;28;20238;-78
2022/04/21 07:55:24;;;;;;;22.35;12.65;;;11.50;39.90;;;;;;5047061;28;20194;-78
2022/04/21 07:57:54;;;;;;;14.90;11.82;;;11.60;39.20;;;;;;5045522;28;20250;-79
2022/04/21 08:00:21;;;;;;;13.57;12.27;;;11.40;38.60;;;;;;5046984;28;20274;-79
2022/04/21 08:02:49;;;;;;;12.82;11.55;;;11.40;38.30;;;;;;5044766;28;20290;-79
2022/04/21 08:05:17;;;;;;;27.63;11.77;;;11.50;38.30;;;;;;5045401;28;20548;-78
2022/04/21 08:07:45;;;;;;;14.82;11.43;;;11.70;38.00;;;;;;5045634;28;20207;-79
2022/04/21 08:10:13;;;;;;;13.15;11.82;;;11.70;37.50;;;;;;5056098;28;20233;-78
2022/04/21 08:12:41;;;;;;;12.40;11.07;;;11.90;37.10;;;;;;5053910;28;20254;-79
2022/04/21 08:15:11;;;;;;;13.20;11.82;;;12.00;36.20;;;;;;5052382;28;20278;-78
2022/04/21 08:17:39;;;;;;;13.35;11.95;;;12.00;35.50;;;;;;5051882;28;20317;-78
2022/04/21 08:20:08;;;;;;;16.80;11.98;;;12.00;35.90;;;;;;5049289;28;20211;-79
2022/04/21 08:22:35;;;;;;;12.63;11.35;;;12.30;36.10;;;;;;5047021;28;20265;-79
2022/04/21 08:33:18;;;;;;;12.43;11.13;;;12.70;34.60;;;;;;5044070;28;20237;-78
2022/04/21 08:35:45;;;;;;;11.13;9.98;;;12.60;34.40;;;;;;5045754;28;20211;-79
2022/04/21 08:38:12;;;;;;;14.35;12.43;;;12.80;33.60;;;;;;5046845;28;20250;-79
2022/04/21 08:40:50;;;;;;;19.20;14.27;;;12.90;33.10;;;;;;5045956;28;20218;-79
2022/04/21 08:43:17;;;;;;;34.00;12.25;;;13.10;32.30;;;;;;5046816;28;20239;-78
2022/04/21 08:45:47;;;;;;;12.70;11.40;;;13.00;32.20;;;;;;5046690;28;20203;-79
2022/04/21 08:48:15;;;;;;;15.27;10.63;;;12.90;32.10;;;;;;5046687;28;20204;-78
2022/04/21 08:50:42;;;;;;;15.45;11.80;;;12.80;32.60;;;;;;5046076;28;20219;-78
2022/04/21 08:53:15;;;;;;;15.05;12.00;;;13.00;32.20;;;;;;5047177;28;20227;-79
2022/04/21 08:55:44;;;;;;;13.93;12.50;;;13.20;32.50;;;;;;5043370;28;20199;-81
2022/04/21 08:58:11;;;;;;;13.80;11.38;;;13.40;32.60;;;;;;5055746;28;20250;-80
2022/04/21 09:00:38;;;;;;;14.80;12.45;;;13.50;31.70;;;;;;5043480;28;20279;-78
2022/04/21 09:03:08;;;;;;;13.50;12.10;;;13.60;31.60;;;;;;5042506;28;20239;-79
2022/04/21 09:05:35;;;;;;;12.50;11.25;;;13.50;32.70;;;;;;5053753;28;20207;-81
2022/04/21 09:08:03;;;;;;;13.07;11.38;;;13.30;32.20;;;;;;5043974;28;20237;-79
2022/04/21 09:10:31;;;;;;;11.90;10.43;;;13.60;32.20;;;;;;5045624;28;20231;-79
2022/04/21 09:13:00;;;;;;;12.30;11.07;;;13.90;31.30;;;;;;5048879;28;20229;-78
2022/04/21 09:15:28;;;;;;;13.45;11.75;;;14.00;30.10;;;;;;5044016;28;20473;-79
2022/04/21 09:17:57;;;;;;;11.87;10.77;;;13.90;29.70;;;;;;5052253;28;20231;-78
2022/04/21 09:20:29;;;;;;;15.45;11.60;;;14.10;29.90;;;;;;5047765;28;20526;-80
2022/04/21 09:22:58;;;;;;;11.60;9.77;;;14.20;29.40;;;;;;5053413;28;20329;-81
2022/04/21 09:25:26;;;;;;;15.90;10.85;;;13.70;30.40;;;;;;5049897;28;20211;-81
2022/04/21 09:27:54;;;;;;;10.93;9.88;;;14.00;29.40;;;;;;5072614;28;20202;-81
2022/04/21 09:30:22;;;;;;;11.57;10.37;;;14.00;29.70;;;;;;5049546;28;20208;-83
2022/04/21 09:32:54;;;;;;;11.88;10.23;;;14.30;29.60;;;;;;5038385;28;20458;-83
2022/04/21 09:35:33;;;;;;;11.07;9.97;;;14.40;29.10;;;;;;5056761;28;20196;-83
2022/04/21 09:38:04;;;;;;;11.13;10.00;;;14.30;28.90;;;;;;5056858;28;20459;-80
2022/04/21 09:40:32;;;;;;;12.75;11.50;;;13.90;29.80;;;;;;5054336;28;20191;-80
2022/04/21 09:43:00;;;;;;;11.15;9.40;;;13.90;30.70;;;;;;5044964;28;20239;-80
2022/04/21 09:48:30;;;;;;;11.97;10.63;;;14.00;31.00;;;;;;5039808;28;20718;-78
2022/04/21 09:51:08;;;;;;;11.73;10.53;;;14.10;30.60;;;;;;5049348;28;20452;-81
2022/04/21 09:53:49;;;;;;;11.50;9.80;;;14.10;30.50;;;;;;5051887;28;20448;-79
2022/04/21 09:56:29;;;;;;;10.10;9.10;;;14.20;30.60;;;;;;5068350;28;20201;-83
2022/04/21 09:58:56;;;;;;;11.07;9.07;;;14.50;29.70;;;;;;5066038;28;20500;-79
2022/04/21 10:01:34;;;;;;;11.65;9.25;;;14.70;29.30;;;;;;5066563;28;20477;-80
2022/04/21 10:04:05;;;;;;;9.10;8.10;;;14.70;29.60;;;;;;5070144;28;20199;-80
2022/04/21 10:06:33;;;;;;;8.33;7.53;;;15.10;28.90;;;;;;5062111;28;20529;-81
2022/04/21 10:09:05;;;;;;;9.20;7.10;;;15.10;28.60;;;;;;5073079;28;20423;-83
2022/04/21 10:11:32;;;;;;;6.60;6.10;;;15.10;28.80;;;;;;5057887;28;20561;-79
2022/04/21 10:13:59;;;;;;;9.97;7.47;;;15.40;27.90;;;;;;5052230;28;20438;-81
2022/04/21 10:16:29;;;;;;;8.20;7.00;;;15.10;28.30;;;;;;5054680;28;20485;-81
2022/04/21 10:19:00;;;;;;;7.93;7.23;;;15.00;28.50;;;;;;5055104;28;20536;-82
2022/04/21 10:21:31;;;;;;;6.27;5.67;;;14.90;29.20;;;;;;5054037;28;20443;-80
2022/04/21 10:23:58;;;;;;;6.33;5.70;;;15.20;29.50;;;;;;5055318;28;20522;-83
2022/04/21 10:26:39;;;;;;;5.53;4.67;;;15.70;28.00;;;;;;5063257;28;20425;-81
2022/04/21 10:29:13;;;;;;;4.90;4.50;;;15.80;26.70;;;;;;5062768;28;20458;-87
2022/04/21 10:31:55;;;;;;;5.03;3.80;;;15.60;26.50;;;;;;5063923;28;20487;-80
2022/04/21 10:34:32;;;;;;;3.90;3.60;;;15.70;26.60;;;;;;5061568;28;20468;-82
2022/04/21 10:37:08;;;;;;;5.90;3.70;;;15.60;27.00;;;;;;5059632;28;20464;-84
2022/04/21 10:39:35;;;;;;;5.10;4.33;;;15.60;26.80;;;;;;5069281;28;20468;-83
2022/04/21 10:42:15;;;;;;;3.87;3.57;;;15.60;26.70;;;;;;5045961;28;20479;-86
2022/04/21 10:44:47;;;;;;;4.27;3.97;;;15.40;27.10;;;;;;5035855;28;20439;-83
2022/04/21 10:47:33;;;;;;;4.30;3.90;;;15.60;27.10;;;;;;5057175;28;20460;-84
2022/04/21 10:50:02;;;;;;;4.90;3.40;;;15.30;27.80;;;;;;5073374;28;20465;-83
2022/04/21 10:58:52;;;;;;;4.60;3.53;;;16.00;26.10;;;;;;5039183;28;20543;-81
2022/04/21 11:01:31;;;;;;;7.37;4.67;;;16.50;26.40;;;;;;5062191;28;20458;-81
2022/04/21 11:04:20;;;;;;;5.53;3.27;;;16.40;25.60;;;;;;5054410;28;20552;-81
2022/04/21 11:06:50;;;;;;;6.20;4.57;;;16.40;26.30;;;;;;5055271;28;20474;-80
2022/04/21 11:09:51;;;;;;;11.03;4.30;;;16.00;26.00;;;;;;5072525;28;20441;-83
2022/04/21 11:12:39;;;;;;;4.47;4.00;;;16.00;26.30;;;;;;4985431;28;20470;-77
2022/04/21 11:15:35;;;;;;;4.60;4.20;;;16.20;26.10;;;;;;4961499;28;20453;-76
2022/04/21 11:18:08;;;;;;;5.37;4.00;;;16.20;26.10;;;;;;4989807;28;20465;-76
2022/04/21 11:20:35;;;;;;;3.63;3.33;;;16.60;25.50;;;;;;4985232;28;20479;-78
2022/04/21 11:23:02;;;;;;;3.70;3.40;;;16.70;25.90;;;;;;4982107;28;20492;-78
2022/04/21 11:25:32;;;;;;;4.13;3.83;;;16.50;26.10;;;;;;4975123;28;20465;-78
2022/04/21 11:28:00;;;;;;;5.07;4.53;;;16.60;25.80;;;;;;4985292;28;20460;-78
2022/04/21 11:30:29;;;;;;;5.30;4.80;;;16.10;26.10;;;;;;4979492;28;20431;-78
2022/04/21 11:32:56;;;;;;;5.03;4.63;;;16.10;26.10;;;;;;4979206;28;20502;-77
2022/04/21 11:35:25;;;;;;;6.10;5.50;;;16.30;26.20;;;;;;4957468;29;21091;-78
2022/04/21 11:37:57;;;;;;;5.73;5.23;;;16.10;26.10;;;;;;4975860;28;20515;-78
2022/04/21 11:40:31;;;;;;;5.77;4.13;;;16.30;26.20;;;;;;4980472;28;20423;-76
2022/04/21 11:42:59;;;;;;;6.10;5.47;;;16.80;25.90;;;;;;5019226;28;20456;-81
2022/04/21 11:45:27;;;;;;;6.17;5.57;;;16.50;26.40;;;;;;5058648;28;20449;-79
2022/04/21 11:47:55;;;;;;;6.23;5.63;;;16.30;26.20;;;;;;5075894;28;20465;-80
2022/04/21 11:50:26;;;;;;;6.20;5.30;;;16.50;26.40;;;;;;5066275;28;20446;-78
2022/04/21 11:52:59;;;;;;;7.43;4.97;;;16.40;26.30;;;;;;5066642;28;20457;-78
2022/04/21 11:55:29;;;;;;;6.23;5.50;;;16.70;26.50;;;;;;5053064;28;21028;-80
2022/04/21 11:57:57;;;;;;;6.40;5.73;;;16.30;26.20;;;;;;5064598;28;20474;-81
2022/04/21 12:08:46;;;;;;;10.97;5.70;;;17.00;26.70;;;;;;5058430;28;20447;-78
2022/04/21 12:11:15;;;;;;;5.07;4.67;;;17.30;25.60;;;;;;5064472;28;20433;-80
2022/04/21 12:13:43;;;;;;;5.97;5.47;;;17.20;26.00;;;;;;5056086;28;20435;-81
2022/04/21 12:16:36;;;;;;;5.53;4.90;;;16.90;26.70;;;;;;5070187;28;20453;-82
2022/04/21 12:19:14;;;;;;;6.40;4.53;;;16.80;26.60;;;;;;5068053;28;20541;-82
2022/04/21 12:21:43;;;;;;;5.70;5.20;;;17.30;26.60;;;;;;5077639;28;20477;-79
2022/04/21 12:24:15;;;;;;;6.43;5.60;;;17.30;25.70;;;;;;5043960;28;20458;-81
2022/04/21 12:26:49;;;;;;;7.23;6.60;;;16.80;26.60;;;;;;5040179;28;20538;-78
2022/04/21 12:29:16;;;;;;;6.40;5.37;;;16.90;26.70;;;;;;5064797;28;20523;-78
2022/04/21 12:31:44;;;;;;;5.97;5.37;;;17.30;26.50;;;;;;5065147;28;20480;-80
2022/04/21 12:34:12;;;;;;;5.37;4.87;;;17.60;25.60;;;;;;5058223;28;20490;-78
2022/04/21 12:36:52;;;;;;;9.57;5.30;;;18.00;25.30;;;;;;5066030;28;20469;-77
2022/04/21 12:39:22;;;;;;;6.10;5.60;;;17.70;25.60;;;;;;5065320;28;20459;-80
2022/04/21 12:41:51;;;;;;;7.33;5.63;;;17.50;25.90;;;;;;5055625;28;20569;-79
2022/04/21 12:44:19;;;;;;;5.70;5.10;;;17.40;25.50;;;;;;5058022;28;20473;-79
2022/04/21 12:46:58;;;;;;;6.17;5.57;;;17.60;25.40;;;;;;5065825;28;20455;-79
2022/04/21 12:49:25;;;;;;;6.20;5.10;;;17.90;24.80;;;;;;5058027;28;20446;-79
2022/04/21 12:51:56;;;;;;;6.43;5.20;;;18.00;24.40;;;;;;5065596;28;20469;-84
2022/04/21 12:54:27;;;;;;;5.67;5.10;;;17.40;25.00;;;;;;5056520;28;20485;-82
2022/04/21 12:56:55;;;;;;;7.43;4.97;;;17.20;25.10;;;;;;5036537;28;20553;-82
2022/04/21 12:59:23;;;;;;;8.63;4.87;;;17.00;26.10;;;;;;5035532;28;20482;-83
2022/04/21 13:01:49;;;;;;;9.70;5.97;;;17.70;25.40;;;;;;5058264;28;20996;-78
2022/04/21 13:04:16;;;;;;;7.30;5.43;;;18.20;24.40;;;;;;5055840;28;20456;-79
2022/04/21 13:06:44;;;;;;;5.23;4.77;;;18.10;24.60;;;;;;5062709;28;20446;-82
2022/04/21 13:09:12;;;;;;;6.70;5.93;;;18.10;25.60;;;;;;5055716;28;20461;-82
2022/04/21 13:11:39;;;;;;;5.40;4.90;;;17.80;24.40;;;;;;5054998;28;20489;-79
2022/04/21 13:14:06;;;;;;;9.37;5.00;;;17.50;25.40;;;;;;5060873;28;20576;-84
2022/04/21 13:16:33;;;;;;;5.63;4.00;;;17.50;25.20;;;;;;5069676;28;20437;-83
2022/04/21 13:19:00;;;;;;;4.80;4.40;;;17.40;25.40;;;;;;5066150;28;20461;-79
2022/04/21 13:24:13;;;;;;;5.70;4.80;;;17.60;25.10;;;;;;5060676;28;20504;-78
2022/04/21 13:26:40;;;;;;;5.77;4.57;;;17.30;24.60;;;;;;5074132;28;20467;-82
2022/04/21 13:29:07;;;;;;;5.03;4.53;;;17.10;26.00;;;;;;5073560;28;20465;-84
2022/04/21 13:34:19;;;;;;;5.77;4.63;;;17.20;26.90;;;;;;5060279;28;20473;-82
2022/04/21 13:36:46;;;;;;;11.13;5.10;;;17.40;26.80;;;;;;5067293;28;20471;-76
2022/04/21 13:39:15;;;;;;;5.17;4.67;;;17.40;26.20;;;;;;5064855;28;20482;-80
2022/04/21 13:41:42;;;;;;;4.93;4.37;;;17.10;26.80;;;;;;5058735;28;20501;-81
2022/04/21 13:44:09;;;;;;;6.20;5.60;;;17.10;26.80;;;;;;5073045;28;20452;-80
2022/04/21 13:46:37;;;;;;;6.00;5.40;;;17.10;26.80;;;;;;5074438;28;20461;-80
2022/04/21 13:49:04;;;;;;;5.60;5.10;;;17.00;26.70;;;;;;5042172;28;20461;-78
2022/04/21 13:51:31;;;;;;;6.07;5.47;;;16.80;26.60;;;;;;5027914;28;20538;-78
2022/04/21 13:53:58;;;;;;;10.53;5.30;;;16.90;26.70;;;;;;5051924;28;20469;-76